Time;durP1;ratioP1;P1;durP2;ratioP2;P2;SDS_P1;SDS_P2;PMS_P1;PMS_P2;Temp;Humidity;BMP_temperature;BMP_pressure;BME280_temperature;BME280_humidity;BME280_pressure;Samples;Min_cycle;Max_cycle;Signal;HPM_P1;HPM_P2
2023/05/21 00:00:25;;;;;;;0.08;0.08;;;;;;;;;;5075152;28;20506;-74
2023/05/21 00:02:52;;;;;;;2.00;1.90;;;;;;;;;;5097325;28;20199;-74
2023/05/21 00:05:20;;;;;;;0.08;0.08;;;;;;;;;;5074649;28;20207;-74
2023/05/21 00:07:46;;;;;;;0.10;0.10;;;;;;;;;;5097689;28;20563;-74
2023/05/21 00:10:13;;;;;;;0.03;0.03;;;;;;;;;;5073876;28;20199;-74
2023/05/21 00:12:41;;;;;;;0.10;0.10;;;;;;;;;;5098333;28;20218;-73
2023/05/21 00:15:08;;;;;;;0.10;0.10;;;;;;;;;;5085725;28;20209;-74
2023/05/21 00:17:35;;;;;;;0.20;0.20;;;;;;;;;;5103044;28;20287;-74
2023/05/21 00:20:04;;;;;;;0.10;0.10;;;;;;;;;;5087293;28;20256;-73
2023/05/21 00:22:32;;;;;;;0.10;0.10;;;;;;;;;;5092950;28;20313;-74
2023/05/21 00:24:58;;;;;;;0.20;0.20;;;;;;;;;;5087637;28;20207;-74
2023/05/21 00:27:25;;;;;;;0.10;0.10;;;;;;;;;;5092726;28;20246;-74
2023/05/21 00:29:52;;;;;;;0.10;0.10;;;;;;;;;;5087132;28;20209;-74
2023/05/21 00:32:19;;;;;;;0.10;0.10;;;;;;;;;;5092802;28;20489;-73
2023/05/21 00:34:46;;;;;;;0.10;0.10;;;;;;;;;;5087160;28;20203;-74
2023/05/21 00:37:14;;;;;;;0.08;0.08;;;;;;;;;;5092674;28;20261;-74
2023/05/21 00:39:40;;;;;;;0.10;0.10;;;;;;;;;;5087233;28;20590;-73
2023/05/21 00:42:06;;;;;;;0.13;0.13;;;;;;;;;;5092300;28;20242;-74
2023/05/21 00:44:35;;;;;;;0.13;0.13;;;;;;;;;;5086981;28;20242;-73
2023/05/21 00:47:02;;;;;;;0.10;0.10;;;;;;;;;;5091528;28;20302;-73
2023/05/21 00:49:29;;;;;;;0.05;0.05;;;;;;;;;;5087660;28;20234;-74
2023/05/21 00:51:55;;;;;;;0.00;0.00;;;;;;;;;;5090820;28;20243;-73
2023/05/21 00:54:23;;;;;;;0.10;0.10;;;;;;;;;;5088165;28;20210;-74
2023/05/21 00:56:50;;;;;;;0.10;0.10;;;;;;;;;;5089750;28;20248;-73
2023/05/21 00:59:16;;;;;;;0.10;0.10;;;;;;;;;;5089090;28;20254;-74
2023/05/21 01:01:44;;;;;;;0.10;0.10;;;;;;;;;;5088847;28;20246;-74
2023/05/21 01:04:12;;;;;;;1.95;1.95;;;;;;;;;;5089994;28;20203;-74
2023/05/21 01:06:38;;;;;;;0.15;0.15;;;;;;;;;;5088109;28;20280;-74
2023/05/21 01:09:06;;;;;;;0.00;0.00;;;;;;;;;;5090715;28;20316;-74
2023/05/21 01:11:36;;;;;;;0.10;0.10;;;;;;;;;;5087286;28;20288;-74
2023/05/21 01:14:03;;;;;;;0.10;0.10;;;;;;;;;;5090470;28;20198;-74
2023/05/21 01:16:31;;;;;;;0.00;0.00;;;;;;;;;;5087013;28;20501;-73
2023/05/21 01:18:58;;;;;;;0.00;0.00;;;;;;;;;;5091286;28;20203;-74
2023/05/21 01:21:27;;;;;;;0.10;0.10;;;;;;;;;;5086009;28;20245;-74
2023/05/21 01:23:55;;;;;;;1.02;1.02;;;;;;;;;;5091923;28;20393;-73
2023/05/21 01:26:21;;;;;;;0.10;0.10;;;;;;;;;;5084385;28;20261;-74
2023/05/21 01:28:47;;;;;;;0.10;0.10;;;;;;;;;;5092403;28;20555;-73
2023/05/21 01:31:26;;;;;;;0.10;0.10;;;;;;;;;;5084490;28;20317;-73
2023/05/21 01:33:55;;;;;;;0.10;0.10;;;;;;;;;;5091750;28;20227;-73
2023/05/21 01:36:25;;;;;;;0.65;0.65;;;;;;;;;;5085322;28;20508;-74
2023/05/21 01:38:55;;;;;;;0.10;0.10;;;;;;;;;;5091783;28;20230;-73
2023/05/21 01:41:25;;;;;;;0.30;0.30;;;;;;;;;;5085113;28;20302;-74
2023/05/21 01:43:53;;;;;;;0.50;0.50;;;;;;;;;;5091518;28;20207;-73
2023/05/21 01:46:21;;;;;;;0.07;0.07;;;;;;;;;;5084870;28;20423;-74
2023/05/21 01:48:47;;;;;;;0.05;0.05;;;;;;;;;;5091910;28;20271;-74
2023/05/21 01:51:14;;;;;;;0.10;0.10;;;;;;;;;;5084298;28;20497;-74
2023/05/21 01:53:41;;;;;;;0.05;0.05;;;;;;;;;;5092545;28;20279;-73
2023/05/21 01:56:07;;;;;;;0.10;0.10;;;;;;;;;;5083253;28;20238;-74
2023/05/21 01:58:35;;;;;;;0.10;0.10;;;;;;;;;;5093592;28;20287;-74
2023/05/21 02:01:02;;;;;;;0.10;0.10;;;;;;;;;;5082147;28;20235;-74
2023/05/21 02:03:29;;;;;;;0.10;0.10;;;;;;;;;;5094360;28;20373;-74
2023/05/21 02:05:56;;;;;;;0.10;0.10;;;;;;;;;;5081635;28;20303;-73
2023/05/21 02:08:22;;;;;;;0.32;0.32;;;;;;;;;;5095087;28;20206;-74
2023/05/21 02:10:48;;;;;;;0.00;0.00;;;;;;;;;;5080712;28;20261;-74
2023/05/21 02:13:19;;;;;;;0.67;0.67;;;;;;;;;;5095543;28;20213;-74
2023/05/21 02:15:47;;;;;;;0.20;0.20;;;;;;;;;;5080066;28;20244;-74
2023/05/21 02:18:15;;;;;;;0.40;0.40;;;;;;;;;;5095855;28;20279;-73
2023/05/21 02:20:41;;;;;;;0.03;0.03;;;;;;;;;;5079180;28;20262;-74
2023/05/21 02:23:08;;;;;;;0.10;0.10;;;;;;;;;;5096381;28;20261;-74
2023/05/21 02:25:34;;;;;;;0.10;0.10;;;;;;;;;;5078219;28;20256;-74
2023/05/21 02:28:01;;;;;;;0.00;0.00;;;;;;;;;;5097539;28;20532;-74
2023/05/21 02:30:27;;;;;;;0.00;0.00;;;;;;;;;;5077333;28;20250;-74
2023/05/21 02:32:57;;;;;;;0.10;0.10;;;;;;;;;;5098079;28;20195;-74
2023/05/21 02:35:24;;;;;;;0.10;0.10;;;;;;;;;;5076882;28;20210;-74
2023/05/21 02:37:50;;;;;;;0.30;0.30;;;;;;;;;;5098402;28;20270;-74
2023/05/21 02:40:16;;;;;;;0.10;0.10;;;;;;;;;;5075445;28;20228;-74
2023/05/21 02:42:43;;;;;;;0.10;0.10;;;;;;;;;;5099347;28;20274;-73
2023/05/21 02:45:10;;;;;;;0.10;0.10;;;;;;;;;;5074507;28;20506;-74
2023/05/21 02:47:37;;;;;;;0.10;0.10;;;;;;;;;;5100229;28;20213;-74
2023/05/21 02:50:05;;;;;;;0.10;0.10;;;;;;;;;;5084841;28;20486;-74
2023/05/21 02:52:31;;;;;;;0.10;0.10;;;;;;;;;;5090140;28;20302;-73
2023/05/21 02:54:58;;;;;;;0.10;0.10;;;;;;;;;;5084639;28;20236;-73
2023/05/21 02:57:24;;;;;;;0.00;0.00;;;;;;;;;;5089964;28;20246;-74
2023/05/21 02:59:50;;;;;;;0.00;0.00;;;;;;;;;;5084365;28;20231;-73
2023/05/21 03:02:17;;;;;;;0.03;0.03;;;;;;;;;;5089828;28;20238;-74
2023/05/21 03:04:45;;;;;;;0.10;0.10;;;;;;;;;;5084296;28;20270;-74
2023/05/21 03:07:13;;;;;;;0.10;0.10;;;;;;;;;;5089764;28;20240;-75
2023/05/21 03:09:40;;;;;;;0.03;0.03;;;;;;;;;;5084202;28;20207;-74
2023/05/21 03:12:07;;;;;;;0.10;0.10;;;;;;;;;;5089498;28;20241;-73
2023/05/21 03:14:34;;;;;;;0.37;0.37;;;;;;;;;;5084102;28;20428;-74
2023/05/21 03:17:02;;;;;;;0.10;0.10;;;;;;;;;;5088620;28;20489;-74
2023/05/21 03:19:29;;;;;;;0.10;0.10;;;;;;;;;;5084961;28;20413;-74
2023/05/21 03:21:55;;;;;;;0.03;0.03;;;;;;;;;;5087977;28;20655;-74
2023/05/21 03:24:23;;;;;;;0.00;0.00;;;;;;;;;;5085711;28;20242;-74
2023/05/21 03:26:49;;;;;;;0.10;0.10;;;;;;;;;;5087038;28;20316;-74
2023/05/21 03:29:16;;;;;;;0.10;0.10;;;;;;;;;;5086076;28;20238;-73
2023/05/21 03:31:42;;;;;;;0.10;0.10;;;;;;;;;;5085994;28;20464;-74
2023/05/21 03:34:08;;;;;;;0.07;0.07;;;;;;;;;;5087029;28;20214;-73
2023/05/21 03:36:35;;;;;;;0.10;0.10;;;;;;;;;;5084972;28;20260;-74
2023/05/21 03:39:03;;;;;;;0.10;0.10;;;;;;;;;;5088204;28;20233;-74
2023/05/21 03:41:30;;;;;;;1.43;1.43;;;;;;;;;;5084116;28;20281;-74
2023/05/21 03:43:57;;;;;;;0.10;0.10;;;;;;;;;;5088445;28;20281;-74
2023/05/21 03:46:23;;;;;;;0.10;0.10;;;;;;;;;;5083256;28;20268;-74
2023/05/21 03:48:49;;;;;;;0.10;0.10;;;;;;;;;;5088784;28;20208;-73
2023/05/21 03:51:16;;;;;;;0.10;0.10;;;;;;;;;;5082265;28;20281;-74
2023/05/21 03:53:43;;;;;;;0.10;0.10;;;;;;;;;;5090266;28;20209;-74
2023/05/21 03:56:09;;;;;;;0.10;0.10;;;;;;;;;;5081310;28;20245;-74
2023/05/21 03:58:37;;;;;;;0.10;0.10;;;;;;;;;;5091313;28;20302;-73
2023/05/21 04:01:04;;;;;;;0.10;0.10;;;;;;;;;;5080465;28;20238;-75
2023/05/21 04:03:31;;;;;;;0.10;0.10;;;;;;;;;;5091494;28;20206;-73
2023/05/21 04:05:57;;;;;;;0.00;0.00;;;;;;;;;;5079362;28;20243;-73
2023/05/21 04:08:23;;;;;;;0.00;0.00;;;;;;;;;;5093209;28;20230;-74
2023/05/21 04:10:50;;;;;;;0.30;0.30;;;;;;;;;;5078568;28;20233;-74
2023/05/21 04:13:16;;;;;;;0.30;0.30;;;;;;;;;;5093407;28;20206;-74
2023/05/21 04:15:45;;;;;;;0.10;0.10;;;;;;;;;;5077672;28;20626;-74
2023/05/21 04:18:12;;;;;;;0.30;0.30;;;;;;;;;;5094089;28;20552;-73
2023/05/21 04:20:39;;;;;;;0.10;0.10;;;;;;;;;;5076840;28;20302;-74
2023/05/21 04:23:05;;;;;;;0.10;0.10;;;;;;;;;;5095110;28;20260;-74
2023/05/21 04:25:31;;;;;;;0.10;0.10;;;;;;;;;;5076331;28;20315;-74
2023/05/21 04:27:58;;;;;;;0.00;0.00;;;;;;;;;;5096058;28;20209;-73
2023/05/21 04:30:24;;;;;;;0.10;0.10;;;;;;;;;;5075028;28;20208;-74
2023/05/21 04:32:53;;;;;;;0.10;0.10;;;;;;;;;;5096594;28;20260;-73
2023/05/21 04:35:19;;;;;;;0.00;0.00;;;;;;;;;;5074606;28;20388;-74
2023/05/21 04:37:46;;;;;;;0.00;0.00;;;;;;;;;;5097551;28;20552;-74
2023/05/21 04:40:16;;;;;;;39.25;15.02;;;;;;;;;;5073651;28;20240;-74
2023/05/21 04:42:43;;;;;;;0.10;0.10;;;;;;;;;;5097763;28;20533;-73
2023/05/21 04:45:10;;;;;;;0.10;0.10;;;;;;;;;;5072940;28;20290;-73
2023/05/21 04:47:36;;;;;;;0.10;0.10;;;;;;;;;;5098413;28;20548;-73
2023/05/21 04:50:05;;;;;;;0.10;0.10;;;;;;;;;;5082982;28;20206;-74
2023/05/21 04:52:33;;;;;;;2.37;2.20;;;;;;;;;;5088459;28;20241;-74
2023/05/21 04:55:00;;;;;;;0.07;0.07;;;;;;;;;;5083024;28;20252;-74
2023/05/21 04:57:27;;;;;;;0.10;0.10;;;;;;;;;;5088337;28;20249;-74
2023/05/21 04:59:53;;;;;;;0.10;0.10;;;;;;;;;;5084917;28;20233;-74
2023/05/21 05:02:19;;;;;;;0.10;0.10;;;;;;;;;;5092131;28;20368;-73
2023/05/21 05:04:46;;;;;;;0.10;0.10;;;;;;;;;;5086833;28;20434;-74
2023/05/21 05:07:14;;;;;;;0.17;0.17;;;;;;;;;;5091977;28;20312;-73
2023/05/21 05:09:40;;;;;;;0.10;0.10;;;;;;;;;;5086846;28;20236;-74
2023/05/21 05:12:07;;;;;;;0.00;0.00;;;;;;;;;;5091794;28;20298;-74
2023/05/21 05:14:33;;;;;;;0.97;0.90;;;;;;;;;;5086458;28;20203;-74
2023/05/21 05:17:00;;;;;;;0.10;0.10;;;;;;;;;;5090798;28;20246;-74
2023/05/21 05:19:27;;;;;;;0.10;0.10;;;;;;;;;;5087259;28;20213;-74
2023/05/21 05:21:53;;;;;;;0.10;0.10;;;;;;;;;;5089798;28;20485;-74
2023/05/21 05:24:21;;;;;;;0.10;0.10;;;;;;;;;;5088369;28;20272;-74
2023/05/21 05:26:47;;;;;;;0.17;0.17;;;;;;;;;;5088999;28;20302;-73
2023/05/21 05:29:13;;;;;;;0.10;0.10;;;;;;;;;;5088756;28;20279;-73
2023/05/21 05:31:40;;;;;;;0.03;0.03;;;;;;;;;;5087924;28;20434;-73
2023/05/21 05:34:06;;;;;;;0.10;0.10;;;;;;;;;;5089593;28;20278;-73
2023/05/21 05:36:33;;;;;;;0.05;0.05;;;;;;;;;;5086776;28;20247;-74
2023/05/21 05:38:59;;;;;;;0.10;0.10;;;;;;;;;;5090447;28;20210;-73
2023/05/21 05:41:27;;;;;;;0.05;0.05;;;;;;;;;;5085791;28;20250;-74
2023/05/21 05:43:53;;;;;;;0.00;0.00;;;;;;;;;;5091220;28;20234;-73
2023/05/21 05:46:20;;;;;;;0.10;0.10;;;;;;;;;;5085072;28;20239;-74
2023/05/21 05:48:46;;;;;;;0.10;0.10;;;;;;;;;;5092293;28;20210;-73
2023/05/21 05:51:14;;;;;;;0.00;0.00;;;;;;;;;;5084177;28;20301;-74
2023/05/21 05:53:40;;;;;;;0.10;0.10;;;;;;;;;;5092996;28;20431;-74
2023/05/21 05:56:07;;;;;;;0.10;0.10;;;;;;;;;;5083088;28;20266;-73
2023/05/21 05:58:35;;;;;;;0.10;0.10;;;;;;;;;;5093734;28;20228;-74
2023/05/21 06:01:01;;;;;;;0.05;0.05;;;;;;;;;;5081697;28;20295;-74
2023/05/21 06:03:28;;;;;;;0.10;0.10;;;;;;;;;;5094995;28;20503;-74
2023/05/21 06:05:54;;;;;;;0.65;0.65;;;;;;;;;;5081361;28;20236;-74
2023/05/21 06:08:21;;;;;;;0.15;0.15;;;;;;;;;;5095251;28;20233;-74
2023/05/21 06:10:47;;;;;;;0.10;0.10;;;;;;;;;;5079777;28;20250;-74
2023/05/21 06:13:13;;;;;;;0.10;0.10;;;;;;;;;;5096157;28;20256;-74
2023/05/21 06:15:41;;;;;;;0.10;0.10;;;;;;;;;;5079278;28;20239;-75
2023/05/21 06:18:08;;;;;;;0.10;0.10;;;;;;;;;;5096580;28;20254;-73
2023/05/21 06:20:34;;;;;;;0.10;0.10;;;;;;;;;;5078445;28;20605;-74
2023/05/21 06:23:00;;;;;;;0.03;0.03;;;;;;;;;;5097536;28;20555;-74
2023/05/21 06:25:27;;;;;;;0.03;0.03;;;;;;;;;;5077578;28;20752;-72
2023/05/21 06:27:53;;;;;;;0.00;0.00;;;;;;;;;;5098451;28;20438;-78
2023/05/21 06:30:19;;;;;;;0.10;0.10;;;;;;;;;;5076429;28;20236;-72
2023/05/21 06:32:47;;;;;;;0.10;0.10;;;;;;;;;;5099325;28;20190;-71
2023/05/21 06:35:14;;;;;;;0.10;0.10;;;;;;;;;;5075371;28;20243;-72
2023/05/21 06:37:40;;;;;;;0.00;0.00;;;;;;;;;;5100080;28;20255;-72
2023/05/21 06:40:07;;;;;;;0.00;0.00;;;;;;;;;;5085073;28;20555;-71
2023/05/21 06:42:33;;;;;;;0.03;0.03;;;;;;;;;;5053400;28;20416;-73
2023/05/21 06:45:00;;;;;;;0.03;0.03;;;;;;;;;;5064628;28;20214;-72
2023/05/21 06:47:27;;;;;;;0.20;0.20;;;;;;;;;;5089360;28;20241;-70
2023/05/21 06:49:54;;;;;;;0.35;0.35;;;;;;;;;;5084805;28;20204;-70
2023/05/21 06:52:21;;;;;;;0.03;0.03;;;;;;;;;;5089948;28;20305;-73
2023/05/21 06:54:47;;;;;;;0.10;0.10;;;;;;;;;;5084339;28;20274;-69
2023/05/21 06:57:14;;;;;;;0.00;0.00;;;;;;;;;;5090004;28;20316;-71
2023/05/21 06:59:40;;;;;;;0.10;0.10;;;;;;;;;;5084407;28;20292;-77
2023/05/21 07:02:06;;;;;;;0.25;0.25;;;;;;;;;;5089555;28;20705;-72
2023/05/21 07:04:33;;;;;;;0.10;0.10;;;;;;;;;;5084736;28;20404;-71
2023/05/21 07:07:03;;;;;;;0.03;0.03;;;;;;;;;;5088730;28;20244;-73
2023/05/21 07:09:29;;;;;;;0.10;0.10;;;;;;;;;;5085212;28;20275;-73
2023/05/21 07:11:56;;;;;;;0.10;0.10;;;;;;;;;;5088060;28;20242;-71
2023/05/21 07:14:23;;;;;;;0.05;0.05;;;;;;;;;;5085606;28;20235;-73
2023/05/21 07:16:49;;;;;;;0.00;0.00;;;;;;;;;;5087110;28;20240;-74
2023/05/21 07:19:16;;;;;;;0.10;0.10;;;;;;;;;;5086401;28;20239;-72
2023/05/21 07:21:42;;;;;;;0.10;0.10;;;;;;;;;;5086090;28;20257;-74
2023/05/21 07:24:10;;;;;;;0.30;0.30;;;;;;;;;;5086163;28;20531;-73
2023/05/21 07:26:36;;;;;;;0.03;0.03;;;;;;;;;;5085426;28;20282;-74
2023/05/21 07:29:03;;;;;;;0.03;0.03;;;;;;;;;;5088079;28;20431;-74
2023/05/21 07:31:29;;;;;;;0.10;0.10;;;;;;;;;;5084398;28;20246;-74
2023/05/21 07:33:56;;;;;;;0.10;0.10;;;;;;;;;;5088818;28;20205;-74
2023/05/21 07:36:22;;;;;;;0.08;0.08;;;;;;;;;;5083305;28;20270;-74
2023/05/21 07:38:48;;;;;;;0.10;0.10;;;;;;;;;;5089522;28;20208;-74
2023/05/21 07:41:16;;;;;;;0.05;0.05;;;;;;;;;;5082448;28;20492;-75
2023/05/21 07:43:42;;;;;;;0.08;0.08;;;;;;;;;;5090377;28;20418;-73
2023/05/21 07:46:09;;;;;;;0.10;0.10;;;;;;;;;;5081542;28;20569;-74
2023/05/21 07:48:35;;;;;;;0.10;0.10;;;;;;;;;;5091448;28;20208;-74
2023/05/21 07:51:02;;;;;;;0.10;0.10;;;;;;;;;;5080578;28;20265;-75
2023/05/21 07:53:31;;;;;;;0.00;0.00;;;;;;;;;;5092018;28;20203;-80
2023/05/21 07:55:57;;;;;;;0.00;0.00;;;;;;;;;;5079963;28;20239;-73
2023/05/21 07:58:25;;;;;;;0.10;0.10;;;;;;;;;;5092832;28;20413;-76
2023/05/21 08:00:52;;;;;;;0.10;0.10;;;;;;;;;;5079107;28;20249;-75
2023/05/21 08:03:18;;;;;;;0.20;0.20;;;;;;;;;;5093487;28;20283;-74
2023/05/21 08:05:47;;;;;;;0.00;0.00;;;;;;;;;;5077990;28;20460;-75
2023/05/21 08:08:14;;;;;;;0.00;0.00;;;;;;;;;;5094330;28;20206;-76
2023/05/21 08:10:40;;;;;;;0.00;0.00;;;;;;;;;;5077304;28;20300;-75
2023/05/21 08:13:06;;;;;;;0.10;0.10;;;;;;;;;;5094727;28;20207;-72
2023/05/21 08:15:34;;;;;;;0.00;0.00;;;;;;;;;;5076611;28;20280;-72
2023/05/21 08:18:01;;;;;;;0.00;0.00;;;;;;;;;;5095566;28;20212;-71
2023/05/21 08:20:29;;;;;;;0.10;0.10;;;;;;;;;;5075762;28;20295;-72
2023/05/21 08:22:56;;;;;;;0.10;0.10;;;;;;;;;;5095969;28;20249;-71
2023/05/21 08:25:22;;;;;;;0.00;0.00;;;;;;;;;;5075108;28;20234;-71
2023/05/21 08:27:48;;;;;;;0.00;0.00;;;;;;;;;;5097024;28;20259;-71
2023/05/21 08:30:15;;;;;;;0.03;0.03;;;;;;;;;;5074139;28;20415;-72
2023/05/21 08:32:43;;;;;;;0.00;0.00;;;;;;;;;;5098461;28;20404;-77
2023/05/21 08:35:09;;;;;;;0.00;0.00;;;;;;;;;;5075722;28;20233;-75
2023/05/21 08:37:36;;;;;;;0.00;0.00;;;;;;;;;;5102878;28;20498;-76
2023/05/21 08:40:03;;;;;;;0.10;0.10;;;;;;;;;;5087459;28;20252;-76
2023/05/21 08:42:34;;;;;;;0.00;0.00;;;;;;;;;;5092545;28;20555;-76
2023/05/21 08:45:01;;;;;;;0.00;0.00;;;;;;;;;;5087108;28;20337;-76
2023/05/21 08:47:29;;;;;;;0.10;0.10;;;;;;;;;;5092519;28;20301;-76
2023/05/21 08:49:58;;;;;;;0.32;0.32;;;;;;;;;;5086913;28;20231;-76
2023/05/21 08:52:26;;;;;;;0.10;0.10;;;;;;;;;;5092740;28;20254;-76
2023/05/21 08:54:53;;;;;;;0.00;0.00;;;;;;;;;;5087084;28;20399;-76
2023/05/21 08:57:22;;;;;;;0.10;0.10;;;;;;;;;;5092366;28;20298;-76
2023/05/21 08:59:48;;;;;;;0.10;0.10;;;;;;;;;;5086520;28;20223;-76
2023/05/21 09:02:17;;;;;;;0.10;0.10;;;;;;;;;;5092162;28;20624;-76
2023/05/21 09:04:47;;;;;;;0.00;0.00;;;;;;;;;;5086657;28;20251;-77
2023/05/21 09:07:15;;;;;;;0.00;0.00;;;;;;;;;;5092131;28;20321;-76
2023/05/21 09:09:45;;;;;;;0.00;0.00;;;;;;;;;;5086885;28;20245;-76
2023/05/21 09:12:12;;;;;;;0.10;0.10;;;;;;;;;;5092062;28;20301;-76
2023/05/21 09:14:39;;;;;;;0.00;0.00;;;;;;;;;;5086819;28;20235;-76
2023/05/21 09:17:05;;;;;;;0.00;0.00;;;;;;;;;;5091477;28;20238;-76
2023/05/21 09:19:31;;;;;;;1.75;1.65;;;;;;;;;;5086934;28;20399;-76
2023/05/21 09:22:01;;;;;;;0.00;0.00;;;;;;;;;;5090433;28;20243;-76
2023/05/21 09:24:30;;;;;;;1.20;1.20;;;;;;;;;;5087223;28;20231;-76
2023/05/21 09:26:57;;;;;;;2.33;2.22;;;;;;;;;;5090197;28;20257;-76
2023/05/21 09:29:24;;;;;;;0.10;0.10;;;;;;;;;;5087781;28;20203;-76
2023/05/21 09:31:53;;;;;;;0.00;0.00;;;;;;;;;;5089280;28;20305;-76
2023/05/21 09:34:19;;;;;;;0.00;0.00;;;;;;;;;;5088194;28;20199;-76
2023/05/21 09:36:47;;;;;;;0.00;0.00;;;;;;;;;;5088723;28;20297;-76
2023/05/21 09:39:27;;;;;;;0.00;0.00;;;;;;;;;;5088700;28;20204;-76
2023/05/21 09:41:56;;;;;;;0.00;0.00;;;;;;;;;;5089435;28;20656;-76
2023/05/21 09:44:23;;;;;;;0.00;0.00;;;;;;;;;;5087537;28;20227;-76
2023/05/21 09:46:49;;;;;;;1.85;1.75;;;;;;;;;;5087837;28;20476;-76
2023/05/21 09:49:22;;;;;;;0.00;0.00;;;;;;;;;;5088511;28;20270;-76
2023/05/21 09:51:48;;;;;;;0.00;0.00;;;;;;;;;;5088842;28;20543;-76
2023/05/21 09:54:15;;;;;;;0.00;0.00;;;;;;;;;;5088483;28;20458;-76
2023/05/21 09:56:41;;;;;;;0.00;0.00;;;;;;;;;;5087572;28;20461;-76
2023/05/21 09:59:09;;;;;;;1.00;1.00;;;;;;;;;;5088848;28;20239;-76
2023/05/21 10:01:36;;;;;;;0.00;0.00;;;;;;;;;;5086694;28;20241;-76
2023/05/21 10:04:06;;;;;;;0.00;0.00;;;;;;;;;;5090038;28;20227;-76
2023/05/21 10:06:34;;;;;;;0.00;0.00;;;;;;;;;;5086272;28;20243;-76
2023/05/21 10:09:02;;;;;;;0.00;0.00;;;;;;;;;;5090086;28;20225;-76
2023/05/21 10:11:31;;;;;;;0.00;0.00;;;;;;;;;;5085552;28;20239;-76
2023/05/21 10:13:58;;;;;;;0.40;0.40;;;;;;;;;;5090508;28;20234;-75
2023/05/21 10:16:26;;;;;;;0.00;0.00;;;;;;;;;;5085098;28;20302;-76
2023/05/21 10:18:54;;;;;;;0.00;0.00;;;;;;;;;;5090717;28;20271;-76
2023/05/21 10:21:21;;;;;;;0.10;0.10;;;;;;;;;;5084500;28;20242;-76
2023/05/21 10:23:48;;;;;;;0.22;0.22;;;;;;;;;;5091278;28;20566;-76
2023/05/21 10:26:15;;;;;;;2.53;1.98;;;;;;;;;;5083563;28;20618;-76
2023/05/21 10:28:42;;;;;;;0.05;0.05;;;;;;;;;;5092273;28;20325;-77
2023/05/21 10:31:08;;;;;;;0.10;0.10;;;;;;;;;;5082572;28;20258;-76
2023/05/21 10:33:37;;;;;;;0.00;0.00;;;;;;;;;;5092684;28;20334;-76
2023/05/21 10:36:03;;;;;;;0.00;0.00;;;;;;;;;;5082042;28;20250;-76
2023/05/21 10:38:31;;;;;;;0.05;0.05;;;;;;;;;;5093481;28;20210;-76
2023/05/21 10:40:58;;;;;;;0.00;0.00;;;;;;;;;;5081136;28;20258;-76
2023/05/21 10:43:33;;;;;;;0.00;0.00;;;;;;;;;;5093857;28;20417;-76
2023/05/21 10:46:10;;;;;;;0.00;0.00;;;;;;;;;;5081079;28;20238;-77
2023/05/21 10:48:47;;;;;;;0.00;0.00;;;;;;;;;;5092473;28;20191;-76
2023/05/21 10:51:18;;;;;;;0.03;0.03;;;;;;;;;;5082970;28;20309;-76
2023/05/21 10:53:52;;;;;;;0.00;0.00;;;;;;;;;;5091159;28;20188;-76
2023/05/21 10:56:22;;;;;;;0.00;0.00;;;;;;;;;;5083562;28;20257;-76
2023/05/21 10:59:20;;;;;;;0.00;0.00;;;;;;;;;;5090048;28;20294;-76
2023/05/21 11:01:48;;;;;;;0.20;0.20;;;;;;;;;;5049022;28;20241;-76
2023/05/21 11:04:16;;;;;;;0.00;0.00;;;;;;;;;;5086839;28;20227;-76
2023/05/21 11:06:47;;;;;;;2.45;0.57;;;;;;;;;;5086385;28;20483;-76
2023/05/21 11:09:14;;;;;;;0.00;0.00;;;;;;;;;;5087348;28;20383;-76
2023/05/21 11:11:44;;;;;;;0.00;0.00;;;;;;;;;;5085990;28;20253;-76
2023/05/21 11:14:27;;;;;;;0.10;0.10;;;;;;;;;;5087245;28;20188;-76
2023/05/21 11:16:53;;;;;;;0.00;0.00;;;;;;;;;;5087570;28;20285;-76
2023/05/21 11:19:21;;;;;;;0.80;0.80;;;;;;;;;;5086036;28;20204;-76
2023/05/21 11:21:50;;;;;;;0.22;0.22;;;;;;;;;;5086813;28;20238;-76
2023/05/21 11:24:18;;;;;;;0.20;0.20;;;;;;;;;;5086419;28;20223;-76
2023/05/21 11:27:01;;;;;;;0.30;0.30;;;;;;;;;;5086362;28;20443;-76
2023/05/21 11:29:32;;;;;;;1.70;0.75;;;;;;;;;;5085208;28;20218;-76
2023/05/21 11:32:01;;;;;;;0.00;0.00;;;;;;;;;;5088101;28;20287;-76
2023/05/21 11:34:38;;;;;;;0.00;0.00;;;;;;;;;;5084976;28;20203;-76
2023/05/21 11:37:25;;;;;;;0.20;0.20;;;;;;;;;;5088984;28;20238;-76
2023/05/21 11:39:52;;;;;;;0.00;0.00;;;;;;;;;;5084024;28;20215;-76
2023/05/21 11:42:27;;;;;;;0.00;0.00;;;;;;;;;;5089273;28;20484;-77
2023/05/21 11:44:55;;;;;;;0.00;0.00;;;;;;;;;;5083623;28;20226;-76
2023/05/21 11:47:22;;;;;;;0.00;0.00;;;;;;;;;;5089158;28;20310;-76
2023/05/21 11:49:50;;;;;;;0.32;0.32;;;;;;;;;;5083875;28;20270;-76
2023/05/21 11:52:18;;;;;;;0.00;0.00;;;;;;;;;;5089040;28;20249;-76
2023/05/21 11:54:47;;;;;;;0.00;0.00;;;;;;;;;;5083617;28;20238;-77
2023/05/21 11:57:15;;;;;;;0.45;0.45;;;;;;;;;;5088992;28;20242;-76
2023/05/21 11:59:41;;;;;;;0.00;0.00;;;;;;;;;;5083792;28;20231;-76
2023/05/21 12:02:08;;;;;;;0.00;0.00;;;;;;;;;;5088632;28;20244;-76
2023/05/21 12:04:35;;;;;;;0.00;0.00;;;;;;;;;;5084026;28;20574;-76
2023/05/21 12:07:06;;;;;;;0.00;0.00;;;;;;;;;;5088203;28;20238;-76
2023/05/21 12:09:38;;;;;;;0.00;0.00;;;;;;;;;;5083244;28;20206;-75
2023/05/21 12:12:05;;;;;;;0.20;0.20;;;;;;;;;;5088489;28;20297;-76
2023/05/21 12:14:31;;;;;;;0.00;0.00;;;;;;;;;;5083929;28;20557;-76
2023/05/21 12:16:58;;;;;;;0.03;0.03;;;;;;;;;;5087485;28;20258;-76
2023/05/21 12:19:24;;;;;;;0.00;0.00;;;;;;;;;;5084875;28;20275;-76
2023/05/21 12:21:51;;;;;;;0.00;0.00;;;;;;;;;;5086551;28;20302;-76
2023/05/21 12:24:18;;;;;;;0.00;0.00;;;;;;;;;;5085644;28;20310;-76
2023/05/21 12:26:45;;;;;;;0.00;0.00;;;;;;;;;;5085717;28;20258;-76
2023/05/21 12:29:12;;;;;;;0.20;0.20;;;;;;;;;;5086063;28;20210;-76
2023/05/21 12:31:46;;;;;;;0.00;0.00;;;;;;;;;;5084894;28;20254;-76
2023/05/21 12:34:14;;;;;;;0.10;0.10;;;;;;;;;;5086168;28;20194;-76
2023/05/21 12:36:45;;;;;;;0.52;0.52;;;;;;;;;;5085045;28;20284;-76
2023/05/21 12:39:11;;;;;;;0.05;0.05;;;;;;;;;;5086392;28;20381;-76
2023/05/21 12:41:39;;;;;;;0.00;0.00;;;;;;;;;;5084600;28;20298;-76
2023/05/21 12:44:07;;;;;;;0.47;0.47;;;;;;;;;;5086649;28;20223;-76
2023/05/21 12:46:33;;;;;;;0.00;0.00;;;;;;;;;;5084103;28;20309;-76
2023/05/21 12:49:00;;;;;;;1.23;1.13;;;;;;;;;;5087682;28;20432;-77
2023/05/21 12:51:36;;;;;;;0.00;0.00;;;;;;;;;;5083260;28;20251;-72
2023/05/21 12:54:03;;;;;;;0.00;0.00;;;;;;;;;;5087348;28;20218;-75
2023/05/21 12:56:43;;;;;;;0.00;0.00;;;;;;;;;;5083424;28;20239;-75
2023/05/21 12:59:14;;;;;;;0.10;0.10;;;;;;;;;;5086122;28;20318;-73
2023/05/21 13:01:41;;;;;;;0.00;0.00;;;;;;;;;;5084828;28;20280;-79
2023/05/21 13:04:07;;;;;;;0.00;0.00;;;;;;;;;;5085986;28;20234;-77
2023/05/21 13:06:41;;;;;;;0.90;0.73;;;;;;;;;;5083807;28;20238;-77
2023/05/21 13:09:07;;;;;;;0.00;0.00;;;;;;;;;;5086247;28;20258;-77
2023/05/21 13:11:34;;;;;;;0.00;0.00;;;;;;;;;;5083753;28;20242;-77
2023/05/21 13:14:00;;;;;;;0.00;0.00;;;;;;;;;;5087187;28;20199;-76
2023/05/21 13:16:28;;;;;;;0.00;0.00;;;;;;;;;;5082910;28;20258;-77
2023/05/21 13:18:54;;;;;;;0.00;0.00;;;;;;;;;;5088450;28;20270;-76
2023/05/21 13:21:21;;;;;;;0.00;0.00;;;;;;;;;;5082984;28;20244;-77
2023/05/21 13:23:47;;;;;;;0.00;0.00;;;;;;;;;;5092661;28;20246;-77
2023/05/21 13:26:14;;;;;;;0.05;0.05;;;;;;;;;;5084844;28;20284;-76
2023/05/21 13:28:40;;;;;;;0.00;0.00;;;;;;;;;;5093366;28;20207;-77
2023/05/21 13:31:07;;;;;;;0.25;0.25;;;;;;;;;;5083863;28;20460;-76
2023/05/21 13:33:35;;;;;;;0.65;0.65;;;;;;;;;;5094358;28;20203;-76
2023/05/21 13:36:01;;;;;;;0.00;0.00;;;;;;;;;;5082923;28;20605;-76
2023/05/21 13:38:27;;;;;;;0.00;0.00;;;;;;;;;;5095076;28;20246;-76
2023/05/21 13:40:54;;;;;;;0.00;0.00;;;;;;;;;;5081751;28;20499;-76
2023/05/21 13:43:20;;;;;;;0.08;0.08;;;;;;;;;;5095882;28;20403;-75
2023/05/21 13:45:47;;;;;;;0.00;0.00;;;;;;;;;;5080950;28;20449;-76
2023/05/21 13:48:13;;;;;;;0.00;0.00;;;;;;;;;;5096760;28;20203;-75
2023/05/21 13:50:41;;;;;;;1.17;1.17;;;;;;;;;;5079872;28;20258;-75
2023/05/21 13:53:08;;;;;;;0.10;0.10;;;;;;;;;;5097311;28;20270;-75
2023/05/21 13:55:34;;;;;;;0.00;0.00;;;;;;;;;;5079094;28;20508;-76
2023/05/21 13:58:00;;;;;;;0.30;0.30;;;;;;;;;;5097858;28;20230;-76
2023/05/21 14:00:27;;;;;;;0.00;0.00;;;;;;;;;;5078137;28;20214;-76
2023/05/21 14:02:53;;;;;;;0.00;0.00;;;;;;;;;;5098866;28;20223;-76
2023/05/21 14:05:19;;;;;;;0.00;0.00;;;;;;;;;;5077003;28;20299;-75
2023/05/21 14:07:47;;;;;;;0.00;0.00;;;;;;;;;;5099695;28;20263;-75
2023/05/21 14:10:13;;;;;;;0.00;0.00;;;;;;;;;;5076268;28;20226;-74
2023/05/21 14:12:40;;;;;;;0.10;0.10;;;;;;;;;;5100335;28;20258;-76
2023/05/21 14:15:07;;;;;;;0.00;0.00;;;;;;;;;;5085714;28;20423;-76
2023/05/21 14:17:33;;;;;;;0.00;0.00;;;;;;;;;;5054218;28;20283;-75
2023/05/21 14:20:00;;;;;;;1.10;1.10;;;;;;;;;;5065686;28;20558;-76
2023/05/21 14:22:26;;;;;;;0.10;0.10;;;;;;;;;;5090097;28;20443;-76
2023/05/21 14:24:54;;;;;;;0.00;0.00;;;;;;;;;;5085434;28;20475;-75
2023/05/21 14:27:21;;;;;;;0.00;0.00;;;;;;;;;;5090744;28;20239;-75
2023/05/21 14:29:47;;;;;;;0.00;0.00;;;;;;;;;;5085126;28;20211;-76
2023/05/21 14:32:13;;;;;;;0.00;0.00;;;;;;;;;;5090192;28;20310;-76
2023/05/21 14:34:40;;;;;;;0.00;0.00;;;;;;;;;;5085140;28;20227;-75
2023/05/21 14:37:06;;;;;;;0.00;0.00;;;;;;;;;;5090325;28;20350;-76
2023/05/21 14:39:33;;;;;;;0.00;0.00;;;;;;;;;;5085369;28;20203;-76
2023/05/21 14:42:02;;;;;;;0.28;0.28;;;;;;;;;;5089225;28;20335;-75
2023/05/21 14:44:29;;;;;;;0.10;0.10;;;;;;;;;;5085617;28;20261;-75